CXA126 ZBTJ-ZSAM
Flight info
| Callsign | CXA126 |
|---|---|
| Flight time | N/A |
| Altitude | 35100 |
| Route | ELKUR8W ELKUR W40 PANKI/K0845S1130 W40 YQG/K0846S1100 W142 DALIM/K0845S1130 A593 DPX A470 AKDIM/K0867S1100 A470 ENVEN ENVEN8X |
| Aircraft | B738/M-SDE2E3FGHIRWXY/LB1 |
Departure
| Time | 2026-04-25 13:30 |
|---|---|
| Airport | Tianjin Binhai International Airport (ZBTJ) |
Arrival
| Time | N/A |
|---|---|
| Airport | Xiamen Gaoqi International Airport (ZSAM) |
| Time | Latitude | Longitude | Altitude | Speed | Heading |
|---|---|---|---|---|---|
| 2026-04-25 13:19 | 39.12585 | 117.35730 | 18 ft | 0 kts | 92° |
| 2026-04-25 13:20 | 39.12586 | 117.35712 | 18 ft | 4 kts | 92° |
| 2026-04-25 13:20 | 39.12587 | 117.35682 | 18 ft | 3 kts | 93° |
| 2026-04-25 13:21 | 39.12593 | 117.35653 | 18 ft | 4 kts | 145° |
| 2026-04-25 13:21 | 39.12617 | 117.35643 | 20 ft | 4 kts | 179° |
| 2026-04-25 13:21 | 39.12635 | 117.35643 | 18 ft | 0 kts | 182° |
| 2026-04-25 13:23 | 39.12625 | 117.35643 | 18 ft | 3 kts | 182° |
| 2026-04-25 13:24 | 39.12585 | 117.35641 | 18 ft | 8 kts | 183° |
| 2026-04-25 13:24 | 39.12514 | 117.35636 | 18 ft | 12 kts | 183° |
| 2026-04-25 13:24 | 39.12416 | 117.35626 | 18 ft | 15 kts | 188° |
| 2026-04-25 13:24 | 39.12349 | 117.35529 | 20 ft | 15 kts | 244° |
| 2026-04-25 13:25 | 39.12305 | 117.35410 | 19 ft | 14 kts | 244° |
| 2026-04-25 13:25 | 39.12260 | 117.35288 | 18 ft | 16 kts | 244° |
| 2026-04-25 13:25 | 39.12223 | 117.35164 | 18 ft | 14 kts | 277° |
| 2026-04-25 13:25 | 39.12292 | 117.35091 | 18 ft | 14 kts | 335° |
| 2026-04-25 13:26 | 39.12389 | 117.35032 | 19 ft | 17 kts | 334° |
| 2026-04-25 13:26 | 39.12509 | 117.34957 | 18 ft | 21 kts | 334° |
| 2026-04-25 13:26 | 39.12652 | 117.34868 | 18 ft | 24 kts | 334° |
| 2026-04-25 13:26 | 39.12815 | 117.34769 | 20 ft | 27 kts | 335° |
| 2026-04-25 13:27 | 39.12991 | 117.34661 | 18 ft | 28 kts | 334° |
| 2026-04-25 13:27 | 39.13028 | 117.34522 | 19 ft | 17 kts | 305° |
| 2026-04-25 13:27 | 39.13134 | 117.34445 | 19 ft | 19 kts | 334° |
| 2026-04-25 13:27 | 39.13259 | 117.34369 | 18 ft | 22 kts | 335° |
| 2026-04-25 13:28 | 39.13408 | 117.34278 | 20 ft | 25 kts | 334° |
| 2026-04-25 13:28 | 39.13463 | 117.34244 | 18 ft | 26 kts | 334° |
| 2026-04-25 13:28 | 39.13758 | 117.34062 | 18 ft | 29 kts | 334° |
| 2026-04-25 13:28 | 39.13778 | 117.33965 | 20 ft | 13 kts | 244° |
| 2026-04-25 13:29 | 39.13741 | 117.33867 | 20 ft | 9 kts | 240° |
| 2026-04-25 13:29 | 39.13687 | 117.33848 | 20 ft | 9 kts | 154° |
| 2026-04-25 13:29 | 39.13681 | 117.33852 | 21 ft | 1 kts | 155° |
| 2026-04-25 13:30 | 39.13015 | 117.34260 | 19 ft | 119 kts | 155° |
| 2026-04-25 13:30 | 39.12086 | 117.34808 | 70 ft | 168 kts | 158° |
| 2026-04-25 13:30 | 39.10980 | 117.35462 | 657 ft | 180 kts | 156° |
| 2026-04-25 13:31 | 39.08857 | 117.36810 | 2531 ft | 168 kts | 165° |
| 2026-04-25 13:31 | 39.07713 | 117.37499 | 2831 ft | 198 kts | 163° |
| 2026-04-25 13:31 | 39.06380 | 117.38298 | 3055 ft | 221 kts | 163° |
| 2026-04-25 13:31 | 39.04924 | 117.39170 | 3278 ft | 246 kts | 162° |
| 2026-04-25 13:32 | 39.03338 | 117.40125 | 3870 ft | 255 kts | 161° |
| 2026-04-25 13:32 | 39.01718 | 117.41100 | 4655 ft | 258 kts | 160° |
| 2026-04-25 13:32 | 39.00051 | 117.41975 | 5295 ft | 261 kts | 172° |
| 2026-04-25 13:32 | 38.98251 | 117.42064 | 5947 ft | 259 kts | 192° |
| 2026-04-25 13:33 | 38.96510 | 117.41459 | 6618 ft | 262 kts | 200° |
| 2026-04-25 13:33 | 38.94851 | 117.40465 | 7206 ft | 266 kts | 223° |
| 2026-04-25 13:33 | 38.93788 | 117.38544 | 7881 ft | 266 kts | 244° |
| 2026-04-25 13:33 | 38.93224 | 117.37108 | 8380 ft | 268 kts | 244° |
| 2026-04-25 13:34 | 38.92075 | 117.34256 | 9255 ft | 275 kts | 245° |
| 2026-04-25 13:34 | 38.91204 | 117.32023 | 9820 ft | 283 kts | 245° |
| 2026-04-25 13:34 | 38.90302 | 117.29744 | 10339 ft | 293 kts | 245° |
| 2026-04-25 13:34 | 38.89328 | 117.27329 | 10506 ft | 315 kts | 244° |
| 2026-04-25 13:35 | 38.88282 | 117.24759 | 10659 ft | 336 kts | 244° |
| 2026-04-25 13:35 | 38.87164 | 117.22025 | 10800 ft | 355 kts | 244° |
| 2026-04-25 13:35 | 38.85990 | 117.19161 | 11128 ft | 367 kts | 244° |
| 2026-04-25 13:35 | 38.84790 | 117.16242 | 11677 ft | 371 kts | 244° |
| 2026-04-25 13:36 | 38.83582 | 117.13302 | 12302 ft | 374 kts | 244° |
| 2026-04-25 13:36 | 38.82363 | 117.10339 | 12930 ft | 377 kts | 244° |
| 2026-04-25 13:36 | 38.81129 | 117.07339 | 13570 ft | 381 kts | 245° |
| 2026-04-25 13:36 | 38.79902 | 117.04359 | 14174 ft | 384 kts | 245° |
| 2026-04-25 13:37 | 38.78636 | 117.01285 | 14845 ft | 385 kts | 245° |
| 2026-04-25 13:37 | 38.77401 | 116.98288 | 15507 ft | 387 kts | 245° |
| 2026-04-25 13:37 | 38.76140 | 116.95235 | 16180 ft | 389 kts | 245° |
| 2026-04-25 13:37 | 38.74867 | 116.92159 | 16780 ft | 392 kts | 244° |
| 2026-04-25 13:38 | 38.73571 | 116.89075 | 17357 ft | 396 kts | 244° |
| 2026-04-25 13:38 | 38.72252 | 116.85961 | 17930 ft | 399 kts | 244° |
| 2026-04-25 13:38 | 38.70930 | 116.82844 | 18576 ft | 399 kts | 244° |
| 2026-04-25 13:38 | 38.69604 | 116.79716 | 19104 ft | 401 kts | 244° |
| 2026-04-25 13:39 | 38.68269 | 116.76561 | 19560 ft | 405 kts | 245° |
| 2026-04-25 13:39 | 38.66922 | 116.73383 | 20038 ft | 409 kts | 245° |
| 2026-04-25 13:39 | 38.65446 | 116.70240 | 20487 ft | 416 kts | 234° |
| 2026-04-25 13:39 | 38.63263 | 116.67753 | 20929 ft | 429 kts | 215° |
| 2026-04-25 13:40 | 38.60525 | 116.66153 | 21421 ft | 439 kts | 199° |
| 2026-04-25 13:40 | 38.57480 | 116.65551 | 21842 ft | 448 kts | 188° |
| 2026-04-25 13:40 | 38.54360 | 116.65231 | 22230 ft | 452 kts | 187° |
| 2026-04-25 13:40 | 38.51199 | 116.64941 | 22616 ft | 456 kts | 187° |
| 2026-04-25 13:41 | 38.48029 | 116.64635 | 23032 ft | 459 kts | 188° |
| 2026-04-25 13:41 | 38.44836 | 116.64299 | 23438 ft | 462 kts | 188° |
| 2026-04-25 13:41 | 38.41622 | 116.63939 | 23776 ft | 465 kts | 188° |
| 2026-04-25 13:41 | 38.38392 | 116.63566 | 24085 ft | 467 kts | 188° |
| 2026-04-25 13:42 | 38.35142 | 116.63190 | 24398 ft | 470 kts | 188° |
| 2026-04-25 13:42 | 38.31873 | 116.62838 | 24709 ft | 474 kts | 186° |
| 2026-04-25 13:42 | 38.28597 | 116.62948 | 25007 ft | 482 kts | 177° |
| 2026-04-25 13:42 | 38.25231 | 116.63737 | 25320 ft | 488 kts | 167° |
| 2026-04-25 13:43 | 38.21963 | 116.64993 | 25632 ft | 491 kts | 165° |
| 2026-04-25 13:43 | 38.18730 | 116.66285 | 25905 ft | 495 kts | 165° |
| 2026-04-25 13:43 | 38.15429 | 116.67567 | 26153 ft | 497 kts | 166° |
| 2026-04-25 13:43 | 38.12103 | 116.68808 | 26433 ft | 500 kts | 166° |
| 2026-04-25 13:44 | 38.08759 | 116.70044 | 26710 ft | 502 kts | 166° |
| 2026-04-25 13:44 | 38.05394 | 116.71313 | 26991 ft | 504 kts | 166° |
| 2026-04-25 13:44 | 38.02028 | 116.72599 | 27275 ft | 506 kts | 166° |
| 2026-04-25 13:44 | 37.98655 | 116.73893 | 27529 ft | 509 kts | 166° |
| 2026-04-25 13:45 | 37.95251 | 116.75199 | 27787 ft | 511 kts | 166° |
| 2026-04-25 13:45 | 37.91837 | 116.76505 | 28024 ft | 514 kts | 166° |
| 2026-04-25 13:45 | 37.88408 | 116.77813 | 28329 ft | 515 kts | 166° |
| 2026-04-25 13:45 | 37.84977 | 116.79119 | 28717 ft | 514 kts | 166° |
| 2026-04-25 13:46 | 37.81554 | 116.80420 | 29102 ft | 513 kts | 166° |
| 2026-04-25 13:46 | 37.78132 | 116.81719 | 29450 ft | 513 kts | 166° |
| 2026-04-25 13:46 | 37.74708 | 116.83016 | 29765 ft | 514 kts | 166° |
| 2026-04-25 13:46 | 37.71273 | 116.84316 | 30061 ft | 515 kts | 166° |
| 2026-04-25 13:47 | 37.67844 | 116.85613 | 30393 ft | 514 kts | 166° |
| 2026-04-25 13:47 | 37.64423 | 116.86906 | 30693 ft | 513 kts | 166° |
| 2026-04-25 13:47 | 37.61004 | 116.88197 | 30946 ft | 514 kts | 166° |
| 2026-04-25 13:47 | 37.57570 | 116.89492 | 31204 ft | 515 kts | 166° |
| 2026-04-25 13:48 | 37.54135 | 116.90787 | 31452 ft | 516 kts | 166° |
| 2026-04-25 13:48 | 37.50729 | 116.92069 | 31683 ft | 517 kts | 166° |
| 2026-04-25 13:48 | 37.47280 | 116.93366 | 31901 ft | 518 kts | 166° |
| 2026-04-25 13:48 | 37.43828 | 116.94664 | 32175 ft | 518 kts | 166° |
| 2026-04-25 13:49 | 37.40371 | 116.95962 | 32438 ft | 519 kts | 166° |
| 2026-04-25 13:49 | 37.36901 | 116.97264 | 32658 ft | 520 kts | 166° |
| 2026-04-25 13:49 | 37.33428 | 116.98566 | 32883 ft | 521 kts | 166° |
| 2026-04-25 13:49 | 37.29953 | 116.99868 | 33134 ft | 522 kts | 166° |
| 2026-04-25 13:50 | 37.26495 | 117.01327 | 33372 ft | 524 kts | 162° |
| 2026-04-25 13:50 | 37.23080 | 117.02935 | 33586 ft | 525 kts | 161° |
| 2026-04-25 13:50 | 37.19670 | 117.04572 | 33848 ft | 525 kts | 161° |
| 2026-04-25 13:50 | 37.16251 | 117.06198 | 34078 ft | 525 kts | 161° |
| 2026-04-25 13:51 | 37.12838 | 117.07803 | 34362 ft | 523 kts | 161° |
| 2026-04-25 13:51 | 37.10587 | 117.08856 | 34573 ft | 521 kts | 161° |
| 2026-04-25 13:51 | 37.07197 | 117.10437 | 34889 ft | 519 kts | 161° |
| 2026-04-25 13:51 | 37.02666 | 117.12546 | 35021 ft | 522 kts | 161° |
| 2026-04-25 13:52 | 36.99297 | 117.14114 | 35017 ft | 522 kts | 161° |
| 2026-04-25 13:52 | 36.92531 | 117.17265 | 35027 ft | 516 kts | 161° |
| 2026-04-25 13:53 | 36.86910 | 117.19874 | 35035 ft | 514 kts | 162° |
| 2026-04-25 13:53 | 36.79978 | 117.21709 | 35036 ft | 505 kts | 181° |
| 2026-04-25 13:54 | 36.73035 | 117.21639 | 35031 ft | 502 kts | 185° |
| 2026-04-25 13:54 | 36.66048 | 117.21483 | 35051 ft | 503 kts | 185° |
| 2026-04-25 13:55 | 36.59024 | 117.21413 | 35051 ft | 506 kts | 184° |
| 2026-04-25 13:55 | 36.51984 | 117.21372 | 35047 ft | 507 kts | 184° |
| 2026-04-25 13:56 | 36.44901 | 117.21326 | 35071 ft | 509 kts | 183° |
| 2026-04-25 13:56 | 36.37848 | 117.22558 | 35082 ft | 517 kts | 165° |
| 2026-04-25 13:57 | 36.30971 | 117.25227 | 35082 ft | 518 kts | 164° |
| 2026-04-25 13:57 | 36.24091 | 117.27896 | 35073 ft | 518 kts | 164° |
| 2026-04-25 13:58 | 36.17241 | 117.30460 | 35079 ft | 517 kts | 165° |
| 2026-04-25 13:58 | 36.10362 | 117.33002 | 35083 ft | 515 kts | 165° |
| 2026-04-25 13:59 | 36.03491 | 117.35544 | 35086 ft | 515 kts | 165° |
| 2026-04-25 13:59 | 35.96631 | 117.38089 | 35083 ft | 514 kts | 164° |
| 2026-04-25 14:00 | 35.89799 | 117.40650 | 35084 ft | 513 kts | 164° |
| 2026-04-25 14:00 | 35.82958 | 117.43216 | 35087 ft | 513 kts | 164° |
| 2026-04-25 14:01 | 35.76135 | 117.45767 | 35084 ft | 512 kts | 164° |
| 2026-04-25 14:01 | 35.69317 | 117.48309 | 35106 ft | 512 kts | 164° |
| 2026-04-25 14:02 | 35.62499 | 117.50846 | 35096 ft | 512 kts | 164° |
| 2026-04-25 14:02 | 35.55667 | 117.53384 | 35092 ft | 513 kts | 164° |
| 2026-04-25 14:03 | 35.48819 | 117.55923 | 35090 ft | 514 kts | 164° |
| 2026-04-25 14:03 | 35.42023 | 117.58439 | 35101 ft | 514 kts | 164° |
| 2026-04-25 14:04 | 35.35176 | 117.60969 | 35107 ft | 514 kts | 164° |
| 2026-04-25 14:04 | 35.28275 | 117.63515 | 35106 ft | 514 kts | 164° |
| 2026-04-25 14:05 | 35.21462 | 117.66024 | 35105 ft | 515 kts | 164° |
| 2026-04-25 14:05 | 35.14606 | 117.68544 | 35102 ft | 515 kts | 164° |
| 2026-04-25 14:06 | 35.07745 | 117.71062 | 35103 ft | 515 kts | 164° |
| 2026-04-25 14:06 | 35.00884 | 117.73568 | 35111 ft | 515 kts | 164° |
| 2026-04-25 14:07 | 34.94020 | 117.76066 | 35113 ft | 515 kts | 164° |
| 2026-04-25 14:07 | 34.87146 | 117.78565 | 35104 ft | 515 kts | 164° |
| 2026-04-25 14:08 | 34.80274 | 117.81034 | 35092 ft | 515 kts | 164° |
| 2026-04-25 14:08 | 34.73395 | 117.83494 | 35106 ft | 515 kts | 164° |
| 2026-04-25 14:09 | 34.66526 | 117.85964 | 35109 ft | 515 kts | 164° |
| 2026-04-25 14:09 | 34.59657 | 117.88430 | 35108 ft | 515 kts | 164° |
| 2026-04-25 14:10 | 34.52778 | 117.90893 | 35106 ft | 515 kts | 163° |
| 2026-04-25 14:10 | 34.45903 | 117.93349 | 35107 ft | 516 kts | 163° |
| 2026-04-25 14:11 | 34.39019 | 117.95805 | 35108 ft | 516 kts | 163° |
| 2026-04-25 14:11 | 34.32130 | 117.98259 | 35104 ft | 516 kts | 163° |
| 2026-04-25 14:12 | 34.25239 | 118.00719 | 35109 ft | 516 kts | 163° |
| 2026-04-25 14:12 | 34.18367 | 118.03239 | 35109 ft | 516 kts | 163° |
| 2026-04-25 14:13 | 34.11488 | 118.05769 | 35112 ft | 516 kts | 163° |
| 2026-04-25 14:13 | 34.04653 | 118.08267 | 35115 ft | 516 kts | 162° |
| 2026-04-25 14:14 | 33.97769 | 118.10778 | 35112 ft | 516 kts | 162° |
| 2026-04-25 14:14 | 33.90893 | 118.13294 | 35113 ft | 516 kts | 162° |
| 2026-04-25 14:15 | 33.84023 | 118.15806 | 35114 ft | 516 kts | 162° |
| 2026-04-25 14:15 | 33.77164 | 118.18306 | 35112 ft | 515 kts | 162° |
| 2026-04-25 14:16 | 33.70309 | 118.20803 | 35115 ft | 515 kts | 162° |
| 2026-04-25 14:16 | 33.63450 | 118.23299 | 35115 ft | 514 kts | 162° |
| 2026-04-25 14:17 | 33.56608 | 118.25785 | 35110 ft | 514 kts | 162° |
| 2026-04-25 14:17 | 33.49763 | 118.28268 | 35118 ft | 514 kts | 162° |
| 2026-04-25 14:18 | 33.42919 | 118.30747 | 35115 ft | 513 kts | 162° |
| 2026-04-25 14:18 | 33.36084 | 118.33218 | 35122 ft | 513 kts | 162° |
| 2026-04-25 14:19 | 33.29244 | 118.35688 | 35117 ft | 513 kts | 161° |
| 2026-04-25 14:19 | 33.22422 | 118.38146 | 35135 ft | 512 kts | 162° |
| 2026-04-25 14:20 | 33.15595 | 118.40596 | 35120 ft | 512 kts | 162° |
| 2026-04-25 14:20 | 33.08779 | 118.43033 | 35121 ft | 511 kts | 162° |
| 2026-04-25 14:21 | 33.01967 | 118.45466 | 35119 ft | 510 kts | 162° |
| 2026-04-25 14:21 | 32.95212 | 118.47877 | 35123 ft | 509 kts | 162° |
| 2026-04-25 14:22 | 32.88429 | 118.50294 | 35119 ft | 509 kts | 162° |
| 2026-04-25 14:22 | 32.81637 | 118.52710 | 35123 ft | 509 kts | 162° |
| 2026-04-25 14:23 | 32.74857 | 118.55119 | 35130 ft | 508 kts | 162° |
| 2026-04-25 14:23 | 32.68083 | 118.57522 | 35124 ft | 508 kts | 162° |
| 2026-04-25 14:24 | 32.61427 | 118.60333 | 35133 ft | 507 kts | 157° |
| 2026-04-25 14:24 | 32.54865 | 118.63404 | 35126 ft | 507 kts | 156° |
| 2026-04-25 14:25 | 32.48306 | 118.66460 | 35146 ft | 506 kts | 157° |
| 2026-04-25 14:25 | 32.41738 | 118.69466 | 35134 ft | 506 kts | 158° |
| 2026-04-25 14:26 | 32.35175 | 118.72445 | 35125 ft | 504 kts | 158° |
| 2026-04-25 14:26 | 32.28636 | 118.75408 | 35126 ft | 503 kts | 158° |
| 2026-04-25 14:27 | 32.22101 | 118.78368 | 35126 ft | 502 kts | 158° |
| 2026-04-25 14:27 | 32.15582 | 118.81318 | 35129 ft | 501 kts | 158° |
| 2026-04-25 14:28 | 32.09071 | 118.84260 | 35130 ft | 500 kts | 158° |
| 2026-04-25 14:28 | 32.02573 | 118.87191 | 35132 ft | 500 kts | 158° |
| 2026-04-25 14:29 | 31.96117 | 118.90099 | 35147 ft | 500 kts | 158° |
| 2026-04-25 14:29 | 31.89610 | 118.93026 | 35144 ft | 500 kts | 158° |
| 2026-04-25 14:30 | 31.83111 | 118.95945 | 35156 ft | 500 kts | 159° |
| 2026-04-25 14:30 | 31.73345 | 119.00295 | 35149 ft | 501 kts | 159° |
| 2026-04-25 14:31 | 31.66829 | 119.03187 | 35143 ft | 500 kts | 159° |
| 2026-04-25 14:31 | 31.60215 | 119.05686 | 35139 ft | 499 kts | 164° |
| 2026-04-25 14:32 | 31.53851 | 119.08876 | 35132 ft | 498 kts | 146° |
| 2026-04-25 14:32 | 31.48342 | 119.13762 | 35139 ft | 496 kts | 141° |
| 2026-04-25 14:33 | 31.42852 | 119.18665 | 35131 ft | 496 kts | 142° |
| 2026-04-25 14:33 | 31.37341 | 119.23454 | 35141 ft | 496 kts | 142° |
| 2026-04-25 14:34 | 31.31800 | 119.28267 | 35149 ft | 495 kts | 143° |
| 2026-04-25 14:34 | 31.26268 | 119.33084 | 35144 ft | 495 kts | 143° |
| 2026-04-25 14:35 | 31.20744 | 119.37891 | 35148 ft | 495 kts | 143° |
| 2026-04-25 14:35 | 31.15223 | 119.42704 | 35156 ft | 495 kts | 143° |
| 2026-04-25 14:36 | 31.09716 | 119.47525 | 35147 ft | 494 kts | 143° |
| 2026-04-25 14:36 | 31.05146 | 119.51522 | 35157 ft | 494 kts | 143° |
| 2026-04-25 14:37 | 30.99653 | 119.56316 | 35168 ft | 493 kts | 144° |
| 2026-04-25 14:37 | 30.93276 | 119.61870 | 35159 ft | 491 kts | 144° |
| 2026-04-25 14:38 | 30.88694 | 119.65856 | 35160 ft | 490 kts | 144° |
| 2026-04-25 14:38 | 30.83272 | 119.70566 | 35166 ft | 489 kts | 144° |
| 2026-04-25 14:39 | 30.77785 | 119.75327 | 35159 ft | 488 kts | 144° |
| 2026-04-25 14:39 | 30.72352 | 119.80034 | 35169 ft | 487 kts | 144° |
| 2026-04-25 14:40 | 30.66901 | 119.84702 | 35181 ft | 487 kts | 147° |
| 2026-04-25 14:40 | 30.61462 | 119.89322 | 35175 ft | 487 kts | 147° |
| 2026-04-25 14:41 | 30.56054 | 119.94054 | 35170 ft | 488 kts | 144° |
| 2026-04-25 14:41 | 30.50689 | 119.98887 | 35176 ft | 488 kts | 145° |
| 2026-04-25 14:42 | 30.47884 | 120.01053 | 35138 ft | 481 kts | 160° |
| 2026-04-25 14:42 | 30.45815 | 120.01900 | 35177 ft | 472 kts | 172° |
| 2026-04-25 14:42 | 30.41527 | 120.02237 | 35186 ft | 458 kts | 191° |
| 2026-04-25 14:42 | 30.38423 | 120.01542 | 35169 ft | 451 kts | 203° |
| 2026-04-25 14:43 | 30.32923 | 119.98283 | 35177 ft | 444 kts | 214° |
| 2026-04-25 14:43 | 30.27605 | 119.94626 | 35167 ft | 445 kts | 214° |
| 2026-04-25 14:44 | 30.22255 | 119.91015 | 35171 ft | 447 kts | 214° |
| 2026-04-25 14:44 | 30.16849 | 119.87429 | 35166 ft | 448 kts | 214° |
| 2026-04-25 14:45 | 30.11438 | 119.83854 | 35171 ft | 448 kts | 214° |
| 2026-04-25 14:45 | 30.06014 | 119.80271 | 35160 ft | 451 kts | 213° |
| 2026-04-25 14:46 | 30.00573 | 119.76640 | 35167 ft | 452 kts | 214° |
| 2026-04-25 14:46 | 29.95145 | 119.72976 | 35169 ft | 453 kts | 214° |
| 2026-04-25 14:47 | 29.90622 | 119.69936 | 35167 ft | 453 kts | 214° |
| 2026-04-25 14:47 | 29.83830 | 119.66679 | 35166 ft | 464 kts | 197° |
| 2026-04-25 14:48 | 29.77349 | 119.65951 | 35169 ft | 470 kts | 187° |
| 2026-04-25 14:48 | 29.70832 | 119.65653 | 35168 ft | 468 kts | 188° |
| 2026-04-25 14:49 | 29.64340 | 119.65208 | 35160 ft | 467 kts | 188° |
| 2026-04-25 14:49 | 29.57842 | 119.64915 | 35141 ft | 468 kts | 186° |
| 2026-04-25 14:50 | 29.51354 | 119.64772 | 35157 ft | 465 kts | 188° |
| 2026-04-25 14:50 | 29.44910 | 119.64346 | 35161 ft | 462 kts | 189° |
| 2026-04-25 14:51 | 29.38497 | 119.63885 | 35152 ft | 462 kts | 189° |
| 2026-04-25 14:51 | 29.32081 | 119.63465 | 35139 ft | 460 kts | 189° |
| 2026-04-25 14:52 | 29.25695 | 119.63067 | 35150 ft | 459 kts | 189° |
| 2026-04-25 14:52 | 29.20400 | 119.62737 | 35157 ft | 458 kts | 189° |